Time;durP1;ratioP1;P1;durP2;ratioP2;P2;SDS_P1;SDS_P2;PMS_P1;PMS_P2;Temp;Humidity;BMP_temperature;BMP_pressure;BME280_temperature;BME280_humidity;BME280_pressure;Samples;Min_cycle;Max_cycle;Signal;HPM_P1;HPM_P2
2021/09/25 00:01:41;;;;;;;16.30;4.43;;;;;;;-146.90;100.00;60518.97;5069480;28;20025;-77
2021/09/25 00:04:07;;;;;;;12.10;3.90;;;;;;;-146.90;100.00;60518.97;5067945;28;20064;-76
2021/09/25 00:06:32;;;;;;;17.95;3.75;;;;;;;-146.90;100.00;60518.97;5068830;28;20474;-77
2021/09/25 00:08:58;;;;;;;21.65;4.15;;;;;;;-146.90;100.00;60518.97;5068540;28;20017;-77
2021/09/25 00:11:25;;;;;;;17.35;4.10;;;;;;;-146.90;100.00;60518.97;5068960;28;20059;-77
2021/09/25 00:13:50;;;;;;;15.50;3.85;;;;;;;-146.90;100.00;60518.97;5068587;28;20050;-76
2021/09/25 00:16:16;;;;;;;18.98;4.13;;;;;;;-146.90;100.00;60518.97;5067743;28;20032;-77
2021/09/25 00:18:41;;;;;;;17.88;4.07;;;;;;;-146.90;100.00;60518.97;5068647;28;20025;-77
2021/09/25 00:21:07;;;;;;;15.60;3.72;;;;;;;-146.90;100.00;60518.97;5066306;28;20036;-77
2021/09/25 00:23:32;;;;;;;17.02;3.90;;;;;;;-146.90;100.00;60518.97;5067313;28;20107;-78
2021/09/25 00:25:57;;;;;;;16.60;3.85;;;;;;;-146.90;100.00;60518.97;5067913;28;20036;-76
2021/09/25 00:28:22;;;;;;;22.23;4.30;;;;;;;-146.90;100.00;60518.97;5068739;28;20059;-78
2021/09/25 00:30:48;;;;;;;18.63;3.42;;;;;;;-146.90;100.00;60518.97;5068532;28;20025;-76
2021/09/25 00:33:13;;;;;;;14.68;3.75;;;;;;;-146.90;100.00;60518.97;5068215;28;20071;-77
2021/09/25 00:35:38;;;;;;;18.13;3.88;;;;;;;-146.90;100.00;60518.97;5067846;28;20032;-78
2021/09/25 00:38:04;;;;;;;16.88;4.43;;;;;;;-146.90;100.00;60518.97;5068142;28;20060;-75
2021/09/25 00:40:29;;;;;;;18.35;4.30;;;;;;;-146.90;100.00;60518.97;5077998;28;20359;-76
2021/09/25 00:42:54;;;;;;;19.20;4.00;;;;;;;-146.90;100.00;60518.97;5086778;28;20124;-75
2021/09/25 00:45:22;;;;;;;17.55;5.05;;;;;;;-146.90;100.00;60518.97;5083213;28;20434;-76
2021/09/25 00:47:47;;;;;;;13.02;3.85;;;;;;;-146.90;100.00;60518.97;5077825;28;20020;-77
2021/09/25 00:50:13;;;;;;;14.55;4.30;;;;;;;-146.90;100.00;60518.97;5086785;28;20523;-76
2021/09/25 00:52:38;;;;;;;20.83;3.83;;;;;;;-146.90;100.00;60518.97;5073059;28;20078;-77
2021/09/25 00:55:04;;;;;;;14.27;4.22;;;;;;;-146.90;100.00;60518.97;5066731;28;20029;-77
2021/09/25 00:57:31;;;;;;;16.58;4.20;;;;;;;-146.90;100.00;60518.97;5070607;28;20051;-77
2021/09/25 00:59:56;;;;;;;19.30;4.18;;;;;;;-146.90;100.00;60518.97;5070300;28;20021;-76
2021/09/25 01:02:21;;;;;;;13.10;4.70;;;;;;;-146.90;100.00;60518.97;5070627;28;20029;-77
2021/09/25 01:04:48;;;;;;;16.10;4.90;;;;;;;-146.90;100.00;60518.97;5071498;28;20016;-77
2021/09/25 01:07:14;;;;;;;16.83;4.72;;;;;;;-146.90;100.00;60518.97;5071667;28;20470;-77
2021/09/25 01:09:39;;;;;;;17.50;4.72;;;;;;;-146.90;100.00;60518.97;5070516;28;20029;-78
2021/09/25 01:12:06;;;;;;;14.38;4.05;;;;;;;-146.90;100.00;60518.97;5071681;28;20029;-78
2021/09/25 01:14:31;;;;;;;10.85;4.18;;;;;;;-146.90;100.00;60518.97;5070862;28;20473;-76
2021/09/25 01:17:08;;;;;;;14.70;5.05;;;;;;;-146.90;100.00;60518.97;5071328;28;20091;-76
2021/09/25 01:19:34;;;;;;;19.45;5.25;;;;;;;-146.90;100.00;60518.97;5071784;28;20112;-77
2021/09/25 01:21:59;;;;;;;17.30;4.88;;;;;;;-146.90;100.00;60518.97;5070407;28;20021;-76
2021/09/25 01:24:25;;;;;;;13.65;5.28;;;;;;;-146.90;100.00;60518.97;5071884;28;20436;-77
2021/09/25 01:26:50;;;;;;;16.48;5.30;;;;;;;-146.90;100.00;60518.97;5071383;28;20044;-76
2021/09/25 01:29:15;;;;;;;14.82;5.10;;;;;;;-146.90;100.00;60518.97;5070322;28;20056;-76
2021/09/25 01:31:41;;;;;;;15.52;5.68;;;;;;;-146.90;100.00;60518.97;5071541;28;20480;-76
2021/09/25 01:34:06;;;;;;;16.80;6.57;;;;;;;-146.90;100.00;60518.97;5071107;28;20426;-75
2021/09/25 01:36:31;;;;;;;13.20;5.40;;;;;;;-146.90;100.00;60518.97;5071298;28;20056;-76
2021/09/25 01:38:57;;;;;;;12.15;5.57;;;;;;;-146.90;100.00;60518.97;5070381;28;20025;-76
2021/09/25 01:41:22;;;;;;;20.10;5.93;;;;;;;-146.90;100.00;60518.97;5071672;28;20027;-77
2021/09/25 01:43:47;;;;;;;17.90;6.22;;;;;;;-146.90;100.00;60518.97;5071433;28;20049;-76
2021/09/25 01:46:17;;;;;;;15.00;6.35;;;;;;;-146.90;100.00;60518.97;5070658;28;20529;-77
2021/09/25 01:48:42;;;;;;;14.68;5.97;;;;;;;-146.90;100.00;60518.97;5070107;28;20021;-77
2021/09/25 01:51:08;;;;;;;22.40;7.25;;;;;;;-146.90;100.00;60518.97;5070653;28;20098;-76
2021/09/25 01:53:33;;;;;;;15.85;6.25;;;;;;;-146.90;100.00;60518.97;5071167;28;20032;-76
2021/09/25 01:56:06;;;;;;;21.27;6.45;;;;;;;-146.90;100.00;60518.97;5069839;28;20031;-76
2021/09/25 01:58:32;;;;;;;16.43;7.13;;;;;;;-146.90;100.00;60518.97;5071562;28;20048;-76
2021/09/25 02:00:57;;;;;;;22.15;7.18;;;;;;;-146.90;100.00;60518.97;5070078;28;20478;-76
2021/09/25 02:03:22;;;;;;;16.45;6.47;;;;;;;-146.90;100.00;60518.97;5070942;28;20115;-76
2021/09/25 02:05:48;;;;;;;20.40;6.55;;;;;;;-146.90;100.00;60518.97;5069378;28;20176;-76
2021/09/25 02:08:13;;;;;;;15.52;6.40;;;;;;;-146.90;100.00;60518.97;5070081;28;20032;-76
2021/09/25 02:10:38;;;;;;;17.20;6.78;;;;;;;-146.90;100.00;60518.97;5069375;28;20025;-77
2021/09/25 02:13:03;;;;;;;14.38;6.40;;;;;;;-146.90;100.00;60518.97;5069026;28;20074;-76
2021/09/25 02:15:32;;;;;;;14.48;6.00;;;;;;;-146.90;100.00;60518.97;5070790;28;20028;-77
2021/09/25 02:17:57;;;;;;;15.00;5.93;;;;;;;-146.90;100.00;60518.97;5070023;28;20031;-76
2021/09/25 02:20:22;;;;;;;19.25;6.00;;;;;;;-146.90;100.00;60518.97;5071130;28;20016;-76
2021/09/25 02:22:48;;;;;;;18.65;6.70;;;;;;;-146.90;100.00;60518.97;5070213;28;20417;-76
2021/09/25 02:25:13;;;;;;;13.00;6.07;;;;;;;-146.90;100.00;60518.97;5069939;28;20620;-77
2021/09/25 02:27:41;;;;;;;14.95;6.80;;;;;;;-146.90;100.00;60518.97;5070603;28;20029;-76
2021/09/25 02:30:12;;;;;;;12.40;5.85;;;;;;;-146.90;100.00;60518.97;5070027;28;20029;-77
2021/09/25 02:32:37;;;;;;;14.90;5.68;;;;;;;-146.90;100.00;60518.97;5068998;28;20035;-77
2021/09/25 02:35:04;;;;;;;17.40;6.80;;;;;;;-146.90;100.00;60518.97;5069650;28;20032;-78
2021/09/25 02:37:30;;;;;;;19.73;6.85;;;;;;;-146.90;100.00;60518.97;5069456;28;20029;-78
2021/09/25 02:39:55;;;;;;;12.38;6.20;;;;;;;-146.90;100.00;60518.97;5069437;28;20020;-77
2021/09/25 02:42:20;;;;;;;15.75;6.60;;;;;;;-146.90;100.00;60518.97;5070197;28;20032;-76
2021/09/25 02:44:46;;;;;;;18.52;6.25;;;;;;;-146.90;100.00;60518.97;5069896;28;20440;-76
2021/09/25 02:47:11;;;;;;;18.17;5.97;;;;;;;-146.90;100.00;60518.97;5070020;28;20478;-77
2021/09/25 02:49:36;;;;;;;21.23;6.43;;;;;;;-146.90;100.00;60518.97;5070467;28;20036;-76
2021/09/25 02:52:02;;;;;;;15.38;5.95;;;;;;;-146.90;100.00;60518.97;5069247;28;20052;-76
2021/09/25 02:54:27;;;;;;;18.50;7.22;;;;;;;-146.90;100.00;60518.97;5068740;28;20036;-76
2021/09/25 02:56:53;;;;;;;17.27;5.93;;;;;;;-146.90;100.00;60518.97;5069053;28;20107;-76
2021/09/25 02:59:18;;;;;;;14.68;6.63;;;;;;;-146.90;100.00;60518.97;5069720;28;20028;-77
2021/09/25 03:01:45;;;;;;;13.10;5.90;;;;;;;-146.90;100.00;60518.97;5069613;28;20397;-75
2021/09/25 03:04:10;;;;;;;17.58;6.50;;;;;;;-146.90;100.00;60518.97;5067868;28;20028;-76
2021/09/25 03:06:36;;;;;;;20.88;6.88;;;;;;;-146.90;100.00;60518.97;5068392;28;20082;-75
2021/09/25 03:09:01;;;;;;;16.02;6.57;;;;;;;-146.90;100.00;60518.97;5067709;28;20384;-76
2021/09/25 03:11:26;;;;;;;15.00;6.97;;;;;;;-146.90;100.00;60518.97;5069818;28;20523;-76
2021/09/25 03:13:51;;;;;;;14.85;6.43;;;;;;;-146.90;100.00;60518.97;5069268;28;20038;-76
2021/09/25 03:16:17;;;;;;;14.35;6.43;;;;;;;-146.90;100.00;60518.97;5067777;28;20112;-77
2021/09/25 03:18:42;;;;;;;14.13;6.40;;;;;;;-146.90;100.00;60518.97;5068096;28;20024;-77
2021/09/25 03:21:07;;;;;;;18.67;7.13;;;;;;;-146.90;100.00;60518.97;5068713;28;20094;-77
2021/09/25 03:23:33;;;;;;;14.95;6.70;;;;;;;-146.90;100.00;60518.97;5069242;28;20032;-77
2021/09/25 03:25:58;;;;;;;14.98;6.60;;;;;;;-146.90;100.00;60518.97;5068410;28;20025;-77
2021/09/25 03:28:23;;;;;;;16.38;6.72;;;;;;;-146.90;100.00;60518.97;5069542;28;20105;-77
2021/09/25 03:30:49;;;;;;;17.52;7.15;;;;;;;-146.90;100.00;60518.97;5067656;28;20017;-76
2021/09/25 03:33:14;;;;;;;14.98;6.60;;;;;;;-146.90;100.00;60518.97;5069044;28;20052;-77
2021/09/25 03:35:46;;;;;;;17.33;6.82;;;;;;;-146.90;100.00;60518.97;5067658;28;20399;-77
2021/09/25 03:38:12;;;;;;;14.70;6.47;;;;;;;-146.90;100.00;60518.97;5067264;28;20016;-77
2021/09/25 03:40:37;;;;;;;17.00;7.28;;;;;;;-146.90;100.00;60518.97;5068342;28;20028;-77
2021/09/25 03:43:02;;;;;;;15.63;6.57;;;;;;;-146.90;100.00;60518.97;5068416;28;20028;-76
2021/09/25 03:45:28;;;;;;;20.88;7.45;;;;;;;-146.90;100.00;60518.97;5068452;28;20431;-77
2021/09/25 03:47:59;;;;;;;17.58;6.82;;;;;;;-146.90;100.00;60518.97;5067721;28;20025;-76
2021/09/25 03:50:24;;;;;;;15.27;6.50;;;;;;;-146.90;100.00;60518.97;5069121;28;20394;-77
2021/09/25 03:52:50;;;;;;;16.48;6.70;;;;;;;-146.90;100.00;60518.97;5068980;28;20036;-77
2021/09/25 03:55:15;;;;;;;15.93;6.63;;;;;;;-146.90;100.00;60518.97;5067815;28;20028;-75
2021/09/25 03:57:41;;;;;;;14.48;6.32;;;;;;;-146.90;100.00;60518.97;5067900;28;20017;-75
2021/09/25 04:00:07;;;;;;;15.98;6.40;;;;;;;-146.90;100.00;60518.97;5068552;28;20098;-76
2021/09/25 04:02:32;;;;;;;17.50;6.15;;;;;;;-146.90;100.00;60518.97;5067861;28;20032;-75
2021/09/25 04:04:57;;;;;;;16.50;6.72;;;;;;;-146.90;100.00;60518.97;5067853;28;20488;-75
2021/09/25 04:07:23;;;;;;;19.05;6.75;;;;;;;-146.90;100.00;60518.97;5068859;28;20408;-76
2021/09/25 04:09:48;;;;;;;17.85;6.78;;;;;;;-146.90;100.00;60518.97;5068688;28;20025;-75
2021/09/25 04:12:13;;;;;;;14.23;7.53;;;;;;;-146.90;100.00;60518.97;5068370;28;20492;-76
2021/09/25 04:14:39;;;;;;;18.73;7.85;;;;;;;-146.90;100.00;60518.97;5068372;28;20036;-76
2021/09/25 04:17:04;;;;;;;25.48;8.43;;;;;;;-146.90;100.00;60518.97;5067956;28;20021;-75
2021/09/25 04:19:30;;;;;;;19.73;8.45;;;;;;;-146.90;100.00;60518.97;5068571;28;20024;-76
2021/09/25 04:21:55;;;;;;;19.48;9.60;;;;;;;-146.90;100.00;60518.97;5067785;28;20055;-75
2021/09/25 04:24:20;;;;;;;19.23;8.27;;;;;;;-146.90;100.00;60518.97;5068414;28;20398;-76
2021/09/25 04:26:46;;;;;;;20.60;8.80;;;;;;;-146.90;100.00;60518.97;5067048;28;20446;-77
2021/09/25 04:29:11;;;;;;;22.42;8.70;;;;;;;-146.90;100.00;60518.97;5067956;28;20472;-76
2021/09/25 04:31:37;;;;;;;20.30;9.13;;;;;;;-146.90;100.00;60518.97;5069079;28;20024;-76
2021/09/25 04:34:03;;;;;;;18.95;8.65;;;;;;;-146.90;100.00;60518.97;5071793;28;20031;-75
2021/09/25 04:36:28;;;;;;;24.05;9.18;;;;;;;-146.90;100.00;60518.97;5072224;28;20021;-76
2021/09/25 04:38:54;;;;;;;23.88;9.35;;;;;;;-146.90;100.00;60518.97;5071138;28;20027;-76
2021/09/25 04:41:19;;;;;;;22.17;9.02;;;;;;;-146.90;100.00;60518.97;5072552;28;20113;-77
2021/09/25 04:43:45;;;;;;;28.38;10.15;;;;;;;-146.90;100.00;60518.97;5072175;28;20039;-75
2021/09/25 04:46:10;;;;;;;25.55;9.57;;;;;;;-146.90;100.00;60518.97;5071427;28;20031;-75
2021/09/25 04:48:35;;;;;;;27.95;10.18;;;;;;;-146.90;100.00;60518.97;5072195;28;20013;-75
2021/09/25 04:51:01;;;;;;;22.05;9.60;;;;;;;-146.90;100.00;60518.97;5071992;28;20032;-78
2021/09/25 04:53:26;;;;;;;27.25;10.43;;;;;;;-146.90;100.00;60518.97;5072040;28;20023;-75
2021/09/25 04:55:51;;;;;;;22.42;10.65;;;;;;;-146.90;100.00;60518.97;5071418;28;20123;-75
2021/09/25 04:58:17;;;;;;;23.20;10.25;;;;;;;-146.90;100.00;60518.97;5070601;28;20017;-75
2021/09/25 05:00:42;;;;;;;28.85;10.40;;;;;;;-146.90;100.00;60518.97;5070886;28;20042;-75
2021/09/25 05:03:08;;;;;;;33.63;11.45;;;;;;;-146.90;100.00;60518.97;5070363;28;20032;-75
2021/09/25 05:05:33;;;;;;;30.27;11.40;;;;;;;-146.90;100.00;60518.97;5070075;28;20017;-77
2021/09/25 05:07:58;;;;;;;24.70;10.70;;;;;;;-146.90;100.00;60518.97;5071724;28;20474;-76
2021/09/25 05:10:24;;;;;;;25.38;11.02;;;;;;;-146.90;100.00;60518.97;5068829;28;20546;-76
2021/09/25 05:12:49;;;;;;;27.42;10.23;;;;;;;-146.90;100.00;60518.97;5051286;28;20025;-77
2021/09/25 05:15:16;;;;;;;31.00;11.60;;;;;;;-146.90;100.00;60518.97;5052954;28;20032;-77
2021/09/25 05:17:42;;;;;;;25.35;11.00;;;;;;;-146.90;100.00;60518.97;5055111;28;20108;-77
2021/09/25 05:20:08;;;;;;;35.67;12.07;;;;;;;-146.90;100.00;60518.97;5051279;28;20086;-77
2021/09/25 05:22:34;;;;;;;20.23;10.38;;;;;;;-146.90;100.00;60518.97;5054096;28;20304;-77
2021/09/25 05:25:00;;;;;;;24.60;11.00;;;;;;;-146.90;100.00;60518.97;5050758;28;20475;-77
2021/09/25 05:27:26;;;;;;;24.48;10.00;;;;;;;-146.90;100.00;60518.97;5065115;28;20025;-77
2021/09/25 05:29:52;;;;;;;26.73;11.75;;;;;;;-146.90;100.00;60518.97;5053771;28;20035;-77
2021/09/25 05:32:17;;;;;;;30.27;11.80;;;;;;;-146.90;100.00;60518.97;5057600;28;20020;-77
2021/09/25 05:34:43;;;;;;;25.65;11.32;;;;;;;-146.90;100.00;60518.97;5057322;28;20025;-75
2021/09/25 05:37:09;;;;;;;28.17;11.30;;;;;;;-146.90;100.00;60518.97;5054508;28;20036;-76
2021/09/25 05:39:34;;;;;;;30.05;12.27;;;;;;;-146.90;100.00;60518.97;5057254;28;20404;-76
2021/09/25 05:42:00;;;;;;;32.47;12.25;;;;;;;-146.90;100.00;60518.97;5083280;28;20073;-77
2021/09/25 05:44:25;;;;;;;34.33;12.77;;;;;;;-146.90;100.00;60518.97;5090410;28;20015;-76
2021/09/25 05:46:51;;;;;;;36.08;12.63;;;;;;;-146.90;100.00;60518.97;5090544;28;20542;-76
2021/09/25 05:49:16;;;;;;;38.33;12.63;;;;;;;-146.90;100.00;60518.97;5091249;28;20012;-81
2021/09/25 05:51:41;;;;;;;37.03;12.45;;;;;;;-146.90;100.00;60518.97;5092374;28;20016;-82
2021/09/25 05:54:07;;;;;;;35.05;13.10;;;;;;;-146.90;100.00;60518.97;5091110;28;20051;-81
2021/09/25 05:56:32;;;;;;;33.90;12.43;;;;;;;-146.90;100.00;60518.97;5091254;28;20044;-81
2021/09/25 05:58:57;;;;;;;34.45;12.48;;;;;;;-146.90;100.00;60518.97;5088713;28;20055;-81
2021/09/25 06:01:23;;;;;;;39.08;12.63;;;;;;;-146.90;100.00;60518.97;5078578;28;20114;-82
2021/09/25 06:03:48;;;;;;;36.70;13.20;;;;;;;-146.90;100.00;60518.97;5091478;28;20028;-82
2021/09/25 06:06:13;;;;;;;35.00;12.45;;;;;;;-146.90;100.00;60518.97;5089511;28;20929;-81
2021/09/25 06:08:39;;;;;;;36.25;12.52;;;;;;;-146.90;100.00;60518.97;5091561;28;20032;-81
2021/09/25 06:11:04;;;;;;;42.90;12.70;;;;;;;-146.90;100.00;60518.97;5087088;28;20056;-80
2021/09/25 06:13:29;;;;;;;28.50;11.63;;;;;;;-146.90;100.00;60518.97;5054464;28;20025;-81
2021/09/25 06:15:55;;;;;;;35.35;12.65;;;;;;;-146.90;100.00;60518.97;5065252;28;20024;-80
2021/09/25 06:18:20;;;;;;;34.85;13.65;;;;;;;-146.90;100.00;60518.97;5052219;28;20024;-80
2021/09/25 06:20:45;;;;;;;39.13;12.70;;;;;;;-146.90;100.00;60518.97;5052550;28;20103;-81
2021/09/25 06:23:11;;;;;;;36.28;13.73;;;;;;;-146.90;100.00;60518.97;5051806;28;20547;-81
2021/09/25 06:25:36;;;;;;;34.88;12.15;;;;;;;-146.90;100.00;60518.97;5058456;28;20021;-80
2021/09/25 06:28:02;;;;;;;31.90;12.35;;;;;;;-146.90;100.00;60518.97;5068847;28;20024;-81
2021/09/25 06:30:27;;;;;;;35.60;13.00;;;;;;;-146.90;100.00;60518.97;5056828;28;20032;-79
2021/09/25 06:32:53;;;;;;;39.90;13.00;;;;;;;-146.90;100.00;60518.97;5059923;28;20021;-80
2021/09/25 06:35:19;;;;;;;34.83;12.40;;;;;;;-146.90;100.00;60518.97;5081943;28;20382;-80
2021/09/25 06:37:45;;;;;;;38.28;13.52;;;;;;;-146.90;100.00;60518.97;5071030;28;20393;-80
2021/09/25 06:40:11;;;;;;;39.75;15.63;;;;;;;-146.90;100.00;60518.97;5055625;28;20020;-81
2021/09/25 06:42:38;;;;;;;34.53;12.63;;;;;;;-146.90;100.00;60518.97;5052771;28;20033;-80
2021/09/25 06:45:04;;;;;;;39.90;14.40;;;;;;;-146.90;100.00;60518.97;5051139;28;20028;-81
2021/09/25 06:47:29;;;;;;;37.38;14.65;;;;;;;-146.90;100.00;60518.97;5051316;28;20171;-81
2021/09/25 06:49:54;;;;;;;38.83;14.02;;;;;;;-146.90;100.00;60518.97;5050154;28;20021;-81
2021/09/25 06:52:20;;;;;;;37.40;14.15;;;;;;;-146.90;100.00;60518.97;5059212;28;20470;-77
2021/09/25 06:54:45;;;;;;;38.55;14.52;;;;;;;-146.90;100.00;60518.97;5052763;28;20123;-76
2021/09/25 06:57:10;;;;;;;45.15;15.68;;;;;;;-146.90;100.00;60518.97;5058841;28;20398;-77
2021/09/25 06:59:37;;;;;;;36.70;14.88;;;;;;;-146.90;100.00;60518.97;5051035;28;20481;-84
2021/09/25 07:02:03;;;;;;;34.78;14.02;;;;;;;-146.90;100.00;60518.97;5065724;28;20497;-78
2021/09/25 07:04:28;;;;;;;42.92;15.85;;;;;;;-146.90;100.00;60518.97;5077597;28;20024;-81
2021/09/25 07:06:53;;;;;;;44.35;15.55;;;;;;;-146.90;100.00;60518.97;5080291;28;20024;-80
2021/09/25 07:09:18;;;;;;;41.30;15.95;;;;;;;-146.90;100.00;60518.97;5079728;28;20032;-75
2021/09/25 07:11:44;;;;;;;45.17;17.42;;;;;;;-146.90;100.00;60518.97;5082681;28;20020;-79
2021/09/25 07:14:09;;;;;;;48.25;18.83;;;;;;;-146.90;100.00;60518.97;5082647;28;20112;-79
2021/09/25 07:16:36;;;;;;;40.40;16.02;;;;;;;-146.90;100.00;60518.97;5084405;28;20016;-78
2021/09/25 07:19:04;;;;;;;46.15;17.30;;;;;;;-146.90;100.00;60518.97;5080299;28;20099;-75
2021/09/25 07:21:29;;;;;;;43.67;17.27;;;;;;;-146.90;100.00;60518.97;5081884;28;20024;-79
2021/09/25 07:23:54;;;;;;;43.20;17.58;;;;;;;-146.90;100.00;60518.97;5079559;28;20017;-75
2021/09/25 07:26:20;;;;;;;40.72;15.52;;;;;;;-146.90;100.00;60518.97;5084224;28;20770;-75
2021/09/25 07:28:45;;;;;;;43.70;17.25;;;;;;;-146.90;100.00;60518.97;5082481;28;20028;-78
2021/09/25 07:31:11;;;;;;;40.40;16.77;;;;;;;-146.90;100.00;60518.97;5082273;28;20024;-75
2021/09/25 07:33:37;;;;;;;39.38;16.63;;;;;;;-146.90;100.00;60518.97;5076165;28;20055;-75
2021/09/25 07:36:03;;;;;;;41.80;17.50;;;;;;;-146.90;100.00;60518.97;5069837;28;20056;-77
2021/09/25 07:38:29;;;;;;;37.17;16.25;;;;;;;-146.90;100.00;60518.97;5082280;28;20629;-76
2021/09/25 07:40:56;;;;;;;38.33;17.33;;;;;;;-146.90;100.00;60518.97;5071893;28;20099;-75
2021/09/25 07:43:22;;;;;;;31.52;15.77;;;;;;;-146.90;100.00;60518.97;5067660;28;20298;-74
2021/09/25 07:45:47;;;;;;;37.90;17.88;;;;;;;-146.90;100.00;60518.97;5080914;28;20100;-77
2021/09/25 07:48:13;;;;;;;45.13;17.83;;;;;;;-146.90;100.00;60518.97;5086283;28;20099;-74
2021/09/25 07:50:38;;;;;;;39.90;17.23;;;;;;;-146.90;100.00;60518.97;5089198;28;20513;-83
2021/09/25 07:53:05;;;;;;;38.25;17.98;;;;;;;-146.90;100.00;60518.97;5088834;28;20020;-80
2021/09/25 07:55:30;;;;;;;37.25;17.27;;;;;;;-146.90;100.00;60518.97;5088377;28;20389;-80
2021/09/25 07:57:56;;;;;;;36.53;16.98;;;;;;;-146.90;100.00;60518.97;5088741;28;20020;-79
2021/09/25 08:00:22;;;;;;;39.25;16.23;;;;;;;-146.90;100.00;60518.97;5087328;28;20032;-80
2021/09/25 08:02:48;;;;;;;38.25;17.02;;;;;;;-146.90;100.00;60518.97;5063949;28;20028;-81
2021/09/25 08:05:13;;;;;;;33.50;14.93;;;;;;;-146.90;100.00;60518.97;5051650;28;20021;-82
2021/09/25 08:07:39;;;;;;;33.88;15.15;;;;;;;-146.90;100.00;60518.97;5085910;28;20427;-81
2021/09/25 08:10:06;;;;;;;36.55;16.42;;;;;;;-146.90;100.00;60518.97;5085982;28;20024;-82
2021/09/25 08:12:32;;;;;;;42.95;17.30;;;;;;;-146.90;100.00;60518.97;5068874;28;20029;-80
2021/09/25 08:14:57;;;;;;;37.08;17.33;;;;;;;-146.90;100.00;60518.97;5074087;28;20025;-82
2021/09/25 08:17:23;;;;;;;42.53;17.35;;;;;;;-146.90;100.00;60518.97;5065869;28;20029;-82
2021/09/25 08:19:48;;;;;;;42.83;18.73;;;;;;;-146.90;100.00;60518.97;5078999;28;20027;-79
2021/09/25 08:22:14;;;;;;;47.22;18.17;;;;;;;-146.90;100.00;60518.97;5074809;28;20028;-83
2021/09/25 08:24:39;;;;;;;44.40;19.08;;;;;;;-146.90;100.00;60518.97;5081110;28;20036;-79
2021/09/25 08:27:04;;;;;;;43.00;18.40;;;;;;;-146.90;100.00;60518.97;5074271;28;20016;-83
2021/09/25 08:29:30;;;;;;;37.00;17.55;;;;;;;-146.90;100.00;60518.97;5079295;28;20016;-82
2021/09/25 08:31:55;;;;;;;37.55;17.30;;;;;;;-146.90;100.00;60518.97;5077018;28;20048;-83
2021/09/25 08:34:20;;;;;;;42.00;16.92;;;;;;;-146.90;100.00;60518.97;5075878;28;20025;-82
2021/09/25 08:36:46;;;;;;;43.03;16.95;;;;;;;-146.90;100.00;60518.97;5079172;28;20042;-82
2021/09/25 08:39:12;;;;;;;39.58;15.30;;;;;;;-146.90;100.00;60518.97;5067646;28;20075;-82
2021/09/25 08:41:37;;;;;;;37.70;16.63;;;;;;;-146.90;100.00;60518.97;5079630;28;20028;-83
2021/09/25 08:44:04;;;;;;;35.65;16.10;;;;;;;-146.90;100.00;60518.97;5088409;28;20053;-79
2021/09/25 08:46:32;;;;;;;39.92;16.38;;;;;;;-146.90;100.00;60518.97;5088267;28;20031;-77
2021/09/25 08:48:57;;;;;;;45.33;18.05;;;;;;;-146.90;100.00;60518.97;5087914;28;20043;-82
2021/09/25 08:51:22;;;;;;;41.10;18.50;;;;;;;-146.90;100.00;60518.97;5077583;28;20070;-88
2021/09/25 08:53:48;;;;;;;44.88;19.45;;;;;;;-146.90;100.00;60518.97;5087807;28;20055;-86
2021/09/25 08:56:13;;;;;;;40.67;17.35;;;;;;;-146.90;100.00;60518.97;5078958;28;20024;-87
2021/09/25 08:58:39;;;;;;;41.03;18.00;;;;;;;-146.90;100.00;60518.97;5084908;28;20203;-85
2021/09/25 09:01:05;;;;;;;42.55;18.83;;;;;;;-146.90;100.00;60518.97;5075735;28;20033;-85
2021/09/25 09:03:36;;;;;;;46.03;18.08;;;;;;;-146.90;100.00;60518.97;5083097;28;20478;-86
2021/09/25 09:06:15;;;;;;;46.63;19.42;;;;;;;-146.90;100.00;60518.97;5087805;28;20039;-85
2021/09/25 09:08:44;;;;;;;42.00;18.98;;;;;;;-146.90;100.00;60518.97;5089176;28;20042;-85
2021/09/25 09:11:10;;;;;;;44.28;17.77;;;;;;;-146.90;100.00;60518.97;5088750;28;20028;-86
2021/09/25 09:13:37;;;;;;;41.22;16.33;;;;;;;-146.90;100.00;60518.97;5089277;28;20548;-85
2021/09/25 09:16:05;;;;;;;37.83;18.15;;;;;;;-146.90;100.00;60518.97;5086492;28;20019;-84
2021/09/25 09:18:32;;;;;;;36.15;17.58;;;;;;;-146.90;100.00;60518.97;5090104;28;20032;-80
2021/09/25 09:21:21;;;;;;;40.75;17.15;;;;;;;-146.90;100.00;60518.97;5091050;28;20024;-85
2021/09/25 09:23:51;;;;;;;42.95;18.77;;;;;;;-146.90;100.00;60518.97;5093412;28;20115;-86
2021/09/25 09:26:19;;;;;;;38.70;18.65;;;;;;;-146.90;100.00;60518.97;5078330;28;20012;-86
2021/09/25 09:28:46;;;;;;;34.50;18.50;;;;;;;-146.90;100.00;60518.97;5093296;28;20173;-86
2021/09/25 09:31:12;;;;;;;35.55;18.70;;;;;;;-146.90;100.00;60518.97;5082750;28;20012;-82
2021/09/25 09:33:43;;;;;;;35.88;19.63;;;;;;;-146.90;100.00;60518.97;5099052;28;20028;-82
2021/09/25 09:36:28;;;;;;;37.00;18.25;;;;;;;-146.90;100.00;60518.97;5097914;28;20050;-81
2021/09/25 09:39:14;;;;;;;31.48;18.27;;;;;;;-146.90;100.00;60518.97;5102981;28;20092;-82
2021/09/25 09:41:46;;;;;;;39.65;18.15;;;;;;;-146.90;100.00;60518.97;5086546;28;20587;-82
2021/09/25 09:44:24;;;;;;;31.00;16.67;;;;;;;-146.90;100.00;60518.97;5076251;28;20059;-81
2021/09/25 09:46:54;;;;;;;32.72;16.13;;;;;;;-146.90;100.00;60518.97;5084388;28;20046;-82
2021/09/25 09:49:23;;;;;;;30.10;17.75;;;;;;;-146.90;100.00;60518.97;5091314;28;20054;-86
2021/09/25 09:51:49;;;;;;;32.55;17.38;;;;;;;-146.90;100.00;60518.97;5091402;28;20101;-85
2021/09/25 09:54:24;;;;;;;29.92;17.50;;;;;;;-146.90;100.00;60518.97;5082892;28;20091;-85
2021/09/25 09:56:53;;;;;;;30.70;17.60;;;;;;;-146.90;100.00;60518.97;5075158;28;20470;-85
2021/09/25 09:59:19;;;;;;;32.42;19.08;;;;;;;-146.90;100.00;60518.97;5074158;28;20025;-84
2021/09/25 10:01:45;;;;;;;32.08;18.02;;;;;;;-146.90;100.00;60518.97;5068763;28;20047;-86
2021/09/25 10:04:11;;;;;;;41.72;19.50;;;;;;;-146.90;100.00;60518.97;5073444;28;20052;-86
2021/09/25 10:06:37;;;;;;;34.83;18.63;;;;;;;-146.90;100.00;60518.97;5072172;28;20032;-85
2021/09/25 10:09:07;;;;;;;32.85;19.00;;;;;;;-146.90;100.00;60518.97;5087559;28;20020;-85
2021/09/25 10:11:34;;;;;;;38.60;19.58;;;;;;;-146.90;100.00;60518.97;5091064;28;20024;-84
2021/09/25 10:14:00;;;;;;;35.17;19.77;;;;;;;-146.90;100.00;60518.97;5086173;28;20039;-86
2021/09/25 10:16:25;;;;;;;40.63;22.20;;;;;;;-146.90;100.00;60518.97;5090516;28;20024;-86
2021/09/25 10:18:51;;;;;;;41.08;22.90;;;;;;;-146.90;100.00;60518.97;5087102;28;20028;-86
2021/09/25 10:21:17;;;;;;;31.77;20.85;;;;;;;-146.90;100.00;60518.97;5084765;28;20035;-86
2021/09/25 10:23:50;;;;;;;33.85;20.58;;;;;;;-146.90;100.00;60518.97;5082508;28;20093;-85
2021/09/25 10:26:18;;;;;;;38.63;20.55;;;;;;;-146.90;100.00;60518.97;5082143;28;20021;-85
2021/09/25 10:28:57;;;;;;;35.70;20.48;;;;;;;-146.90;100.00;60518.97;5082790;28;20061;-85
2021/09/25 10:31:22;;;;;;;34.60;18.33;;;;;;;-146.90;100.00;60518.97;5084183;28;20095;-86
2021/09/25 10:34:05;;;;;;;30.38;19.00;;;;;;;-146.90;100.00;60518.97;5088474;28;20016;-85
2021/09/25 10:37:02;;;;;;;33.45;19.25;;;;;;;-146.90;100.00;60518.97;5086668;28;20403;-86
2021/09/25 10:39:34;;;;;;;32.65;17.77;;;;;;;-146.90;100.00;60518.97;5072773;28;20092;-86
2021/09/25 10:42:06;;;;;;;28.83;15.75;;;;;;;-146.90;100.00;60518.97;5075385;28;20521;-85
2021/09/25 10:44:36;;;;;;;30.52;17.25;;;;;;;-146.90;100.00;60518.97;5091166;28;20020;-86
2021/09/25 10:47:06;;;;;;;30.77;17.67;;;;;;;-146.90;100.00;60518.97;5084205;28;20026;-85
2021/09/25 10:49:53;;;;;;;30.58;17.05;;;;;;;-146.90;100.00;60518.97;5085716;28;20110;-85
2021/09/25 10:52:22;;;;;;;32.85;18.45;;;;;;;-146.90;100.00;60518.97;5091364;28;20469;-85
2021/09/25 10:55:24;;;;;;;32.40;18.27;;;;;;;-146.90;100.00;60518.97;5079921;28;20115;-86